createdAt,value
2018-04-13T00:03:41.473Z,100096.85
2018-04-13T00:08:32.531Z,100091.17
2018-04-13T00:13:23.628Z,100085.20
2018-04-13T00:18:14.705Z,100080.14
2018-04-13T00:23:06.465Z,100075.82
2018-04-13T00:27:57.485Z,100084.92
2018-04-13T00:32:48.545Z,100080.43
2018-04-13T00:37:39.620Z,100077.33
2018-04-13T00:42:31.396Z,100081.36
2018-04-13T00:47:22.411Z,100066.52
2018-04-13T00:52:13.431Z,100074.95
2018-04-13T00:57:04.563Z,100079.48
2018-04-13T01:01:55.632Z,100076.64
2018-04-13T01:06:47.411Z,100076.58
2018-04-13T01:11:38.451Z,100076.47
2018-04-13T01:16:29.504Z,100076.38
2018-04-13T01:21:20.535Z,100072.96
2018-04-13T01:26:12.308Z,100073.63
2018-04-13T01:31:03.311Z,100072.41
2018-04-13T01:35:55.088Z,100050.94
2018-04-13T01:40:46.155Z,100060.77
2018-04-13T01:45:37.176Z,100057.95
2018-04-13T01:50:28.939Z,100057.98
2018-04-13T01:55:20.806Z,100059.11
2018-04-13T02:00:11.838Z,100061.58
2018-04-13T02:05:02.865Z,100057.63
2018-04-13T02:09:53.939Z,100048.59
2018-04-13T02:14:45.008Z,100055.81
2018-04-13T02:19:36.017Z,100059.75
2018-04-13T02:24:27.033Z,100052.56
2018-04-13T02:29:18.789Z,100050.30
2018-04-13T02:34:09.908Z,100045.73
2018-04-13T02:39:00.939Z,100056.84
2018-04-13T02:43:51.952Z,100048.85
2018-04-13T02:48:43.718Z,100056.62
2018-04-13T02:53:34.839Z,100062.09
2018-04-13T02:58:25.926Z,100058.17
2018-04-13T03:03:17.684Z,100059.91
2018-04-13T03:08:08.696Z,100074.78
2018-04-13T03:13:00.501Z,100068.81
2018-04-13T03:17:51.813Z,100061.20
2018-04-13T03:22:42.841Z,100076.57
2018-04-13T03:27:33.867Z,100072.69
2018-04-13T03:32:24.888Z,100082.91
2018-04-13T03:37:15.929Z,100072.16
2018-04-13T03:42:08.487Z,100071.66
2018-04-13T03:46:59.543Z,100076.44
2018-04-13T03:51:51.321Z,100083.64
2018-04-13T03:56:42.405Z,100093.84
2018-04-13T04:01:34.157Z,100098.18
2018-04-13T04:06:25.167Z,100106.19
2018-04-13T04:11:17.098Z,100115.37
2018-04-13T04:16:08.872Z,100115.48
2018-04-13T04:26:54.480Z,100123.18
2018-04-13T04:31:46.252Z,100126.80
2018-04-13T04:36:37.349Z,100134.42
2018-04-13T04:41:29.137Z,100133.33
2018-04-13T04:46:20.198Z,100138.08
2018-04-13T04:51:11.232Z,100133.13
2018-04-13T04:56:02.399Z,100135.52
2018-04-13T05:00:53.489Z,100128.95
2018-04-13T05:05:45.297Z,100142.58
2018-04-13T05:10:36.316Z,100157.12
2018-04-13T05:15:27.512Z,100170.58
2018-04-13T05:20:18.733Z,100174.84
2018-04-13T05:25:09.802Z,100168.61
2018-04-13T05:30:00.821Z,100182.71
2018-04-13T05:34:51.896Z,100175.92
2018-04-13T05:39:42.979Z,100176.07
2018-04-13T05:44:34.738Z,100172.66
2018-04-13T05:49:26.596Z,100172.37
2018-04-13T05:54:18.360Z,100181.90
2018-04-13T05:59:09.416Z,100167.71
2018-04-13T06:04:00.433Z,100170.91
2018-04-13T06:08:51.476Z,100167.99
2018-04-13T06:13:42.560Z,100170.52
2018-04-13T06:18:33.595Z,100180.55
2018-04-13T06:23:24.641Z,100172.56
2018-04-13T06:28:15.668Z,100180.86
2018-04-13T06:33:07.485Z,100184.63
2018-04-13T06:37:58.532Z,100209.59
2018-04-13T06:42:49.585Z,100230.81
2018-04-13T06:47:41.388Z,100223.89
2018-04-13T06:52:32.782Z,100245.87
2018-04-13T06:57:23.799Z,100250.22
2018-04-13T07:02:14.899Z,100288.45
2018-04-13T07:07:06.741Z,100273.48
2018-04-13T07:11:58.636Z,100293.36
2018-04-13T07:16:49.671Z,100290.78
2018-04-13T07:21:40.811Z,100291.98
2018-04-13T07:26:31.899Z,100301.63
2018-04-13T07:31:24.004Z,100295.72
2018-04-13T07:36:15.753Z,100283.17
2018-04-13T07:41:07.573Z,100300.78
2018-04-13T07:45:59.392Z,100332.88
2018-04-13T07:50:50.415Z,100325.06
2018-04-13T07:55:41.438Z,100354.82
2018-04-13T08:00:32.467Z,100374.72
2018-04-13T08:05:23.525Z,100375.83
2018-04-13T08:10:15.661Z,100336.88
2018-04-13T08:15:06.359Z,100351.20
2018-04-13T08:19:57.558Z,100332.84
2018-04-13T08:24:49.413Z,100319.30
2018-04-13T08:29:40.485Z,100295.97
2018-04-13T08:34:31.513Z,100279.04
2018-04-13T08:39:23.347Z,100272.31
2018-04-13T08:44:14.368Z,100278.77
2018-04-13T08:49:05.569Z,100283.30
2018-04-13T08:53:56.480Z,100261.88
2018-04-13T08:58:47.658Z,100258.32
2018-04-13T09:03:38.708Z,100247.83
2018-04-13T09:08:29.774Z,100243.28
2018-04-13T09:13:21.545Z,100266.77
2018-04-13T09:18:12.661Z,100265.92
2018-04-13T09:23:04.423Z,100260.36
2018-04-13T09:27:55.453Z,100275.55
2018-04-13T09:32:46.571Z,100285.80
2018-04-13T09:37:37.721Z,100296.06
2018-04-13T09:42:28.778Z,100301.36
2018-04-13T09:47:20.592Z,100291.37
2018-04-13T09:52:11.629Z,100304.91
2018-04-13T09:57:02.675Z,100309.69
2018-04-13T10:01:54.420Z,100315.05
2018-04-13T10:06:45.597Z,100313.71
2018-04-13T10:11:36.615Z,100325.09
2018-04-13T10:16:27.860Z,100323.94
2018-04-13T10:21:18.921Z,100309.72
2018-04-13T10:26:09.964Z,100319.05
2018-04-13T10:31:00.960Z,100314.00
2018-04-13T10:35:51.960Z,100312.52
2018-04-13T10:40:43.002Z,100312.55
2018-04-13T10:45:34.851Z,100325.01
2018-04-13T10:50:25.870Z,100329.38
2018-04-13T10:55:17.734Z,100327.60
2018-04-13T11:00:08.864Z,100329.79
2018-04-13T11:04:59.880Z,100336.81
2018-04-13T11:09:50.895Z,100359.27
2018-04-13T11:14:41.918Z,100353.27
2018-04-13T11:19:33.862Z,100327.92
2018-04-13T11:24:24.877Z,100320.05
2018-04-13T11:29:15.977Z,100320.48
2018-04-13T11:34:07.816Z,100320.80
2018-04-13T11:38:59.729Z,100316.64
2018-04-13T11:43:50.816Z,100310.72
2018-04-13T11:48:41.852Z,100294.10
2018-04-13T11:53:32.904Z,100283.55
2018-04-13T11:58:23.960Z,100285.75
2018-04-13T12:03:15.816Z,100284.33
2018-04-13T12:08:06.845Z,100283.81
2018-04-13T12:12:57.887Z,100277.28
2018-04-13T12:17:48.973Z,100265.91
2018-04-13T12:22:40.743Z,100272.77
2018-04-13T12:27:31.735Z,100275.41
2018-04-13T12:32:23.539Z,100274.23
2018-04-13T12:37:14.568Z,100258.12
2018-04-13T12:42:05.771Z,100243.78
2018-04-13T12:46:57.003Z,100250.87
2018-04-13T12:51:48.012Z,100253.34
2018-04-13T12:56:39.134Z,100258.28
2018-04-13T13:01:30.264Z,100256.45
2018-04-13T13:06:21.293Z,100245.59
2018-04-13T13:11:12.316Z,100252.49
2018-04-13T13:16:03.320Z,100259.89
2018-04-13T13:20:54.433Z,100241.84
2018-04-13T13:25:45.436Z,100227.27
2018-04-13T13:30:37.259Z,100229.20
2018-04-13T13:35:28.313Z,100232.02
2018-04-13T13:40:20.048Z,100224.74
2018-04-13T13:45:11.860Z,100230.30
2018-04-13T13:50:02.978Z,100219.85
2018-04-13T13:54:54.206Z,100228.16
2018-04-13T13:59:45.939Z,100223.34
2018-04-13T14:04:36.952Z,100222.34
2018-04-13T14:09:28.033Z,100228.63
2018-04-13T14:14:19.056Z,100225.48
2018-04-13T14:19:10.083Z,100226.55
2018-04-13T14:24:01.101Z,100222.87
2018-04-13T14:28:52.141Z,100220.13
2018-04-13T14:33:43.230Z,100221.20
2018-04-13T14:38:35.053Z,100203.73
2018-04-13T14:43:26.057Z,100198.53
2018-04-13T14:48:17.152Z,100191.25
2018-04-13T14:53:08.218Z,100206.11
2018-04-13T14:57:59.295Z,100205.64
2018-04-13T15:02:50.300Z,100205.92
2018-04-13T15:07:42.063Z,100210.91
2018-04-13T15:12:33.108Z,100213.16
2018-04-13T15:17:24.161Z,100211.02
2018-04-13T15:22:15.192Z,100235.08
2018-04-13T15:27:06.947Z,100241.31
2018-04-13T15:31:58.856Z,100221.70
2018-04-13T15:36:50.049Z,100240.13
2018-04-13T15:41:41.101Z,100233.95
2018-04-13T15:46:32.178Z,100236.48
2018-04-13T15:51:23.311Z,100235.02
2018-04-13T15:56:14.340Z,100239.19
2018-04-13T16:01:05.438Z,100241.52
2018-04-13T16:05:57.224Z,100263.16
2018-04-13T16:10:48.248Z,100282.75
2018-04-13T16:15:39.297Z,100280.77
2018-04-13T16:20:30.300Z,100286.97
2018-04-13T16:25:21.410Z,100293.47
2018-04-13T16:30:12.453Z,100296.98
2018-04-13T16:35:03.488Z,100307.38
2018-04-13T16:39:54.558Z,100323.47
2018-04-13T16:44:45.602Z,100333.52
2018-04-13T16:49:36.630Z,100339.78
2018-04-13T16:54:27.715Z,100340.87
2018-04-13T16:59:19.517Z,100329.98
2018-04-13T17:04:11.314Z,100325.50
2018-04-13T17:09:02.388Z,100326.17
2018-04-13T17:13:54.213Z,100317.11
2018-04-13T17:18:45.268Z,100318.63
2018-04-13T17:23:37.018Z,100311.34
2018-04-13T17:28:28.765Z,100309.47
2018-04-13T17:33:20.519Z,100316.92
2018-04-13T17:38:11.549Z,100315.14
2018-04-13T17:43:02.684Z,100325.24
2018-04-13T17:47:53.688Z,100330.98
2018-04-13T17:52:44.761Z,100340.00
2018-04-13T17:57:35.763Z,100350.74
2018-04-13T18:02:26.795Z,100386.63
2018-04-13T18:07:17.940Z,100420.72
2018-04-13T18:12:09.025Z,100427.61
2018-04-13T18:17:00.048Z,100404.52
2018-04-13T18:21:51.086Z,100449.23
2018-04-13T18:26:42.161Z,100460.25
2018-04-13T18:31:33.117Z,100455.03
2018-04-13T18:36:24.125Z,100441.44
2018-04-13T18:41:15.139Z,100466.98
2018-04-13T18:46:06.165Z,100476.39
2018-04-13T18:50:57.264Z,100458.02
2018-04-13T18:55:48.255Z,100443.47
2018-04-13T19:00:39.268Z,100452.13
2018-04-13T19:05:30.309Z,100444.25
2018-04-13T19:10:22.926Z,100449.14
2018-04-13T19:15:13.937Z,100461.07
2018-04-13T19:20:05.001Z,100474.13
2018-04-13T19:24:56.023Z,100490.32
2018-04-13T19:29:47.042Z,100476.34
2018-04-13T19:34:38.152Z,100476.22
2018-04-13T19:39:29.207Z,100484.07
2018-04-13T19:44:20.248Z,100474.70
2018-04-13T19:49:11.997Z,100439.36
2018-04-13T19:54:03.743Z,100428.03
2018-04-13T19:58:55.579Z,100411.86
2018-04-13T20:03:47.399Z,100395.14
2018-04-13T20:08:38.437Z,100390.12
2018-04-13T20:13:30.256Z,100412.44
2018-04-13T20:18:21.255Z,100405.11
2018-04-13T20:23:12.310Z,100391.38
2018-04-13T20:28:03.395Z,100390.19
2018-04-13T20:32:54.422Z,100405.17
2018-04-13T20:37:45.632Z,100410.33
2018-04-13T20:42:36.705Z,100408.18
2018-04-13T20:47:29.213Z,100424.21
2018-04-13T20:52:20.740Z,100448.52
2018-04-13T20:57:12.513Z,100459.94
2018-04-13T21:02:03.528Z,100452.73
2018-04-13T21:06:54.545Z,100466.45
2018-04-13T21:11:45.575Z,100473.79
2018-04-13T21:16:36.616Z,100478.66
2018-04-13T21:21:27.644Z,100483.44
2018-04-13T21:26:18.644Z,100489.66
2018-04-13T21:31:09.677Z,100506.62
2018-04-13T21:36:00.744Z,100506.36
2018-04-13T21:40:52.531Z,100502.14
2018-04-13T21:45:43.532Z,100518.94
2018-04-13T21:50:34.562Z,100523.41
2018-04-13T21:55:25.579Z,100533.80
2018-04-13T22:00:16.577Z,100539.36
2018-04-13T22:05:08.333Z,100551.12
2018-04-13T22:10:00.133Z,100551.76
2018-04-13T22:14:54.040Z,100556.19
2018-04-13T22:19:45.799Z,100574.93
2018-04-13T22:24:37.544Z,100573.72
2018-04-13T22:29:28.566Z,100579.54
2018-04-13T22:34:20.337Z,100588.84
2018-04-13T22:39:11.367Z,100600.14
2018-04-13T22:44:02.468Z,100596.72
2018-04-13T22:48:53.496Z,100604.83
2018-04-13T22:53:44.506Z,100609.81
2018-04-13T22:58:36.329Z,100611.25
2018-04-13T23:03:28.113Z,100639.19
2018-04-13T23:08:19.143Z,100638.47
2018-04-13T23:13:10.185Z,100645.81
2018-04-13T23:18:01.237Z,100651.47
2018-04-13T23:22:53.024Z,100657.84
2018-04-13T23:27:44.053Z,100663.63
2018-04-13T23:32:35.064Z,100667.20
2018-04-13T23:37:26.176Z,100670.57
2018-04-13T23:42:17.240Z,100664.70
2018-04-13T23:47:08.246Z,100666.28
2018-04-13T23:51:59.255Z,100667.39
2018-04-13T23:56:50.279Z,100671.28
